sensor_id;sensor_type;location;lat;lon;timestamp;P1;durP1;ratioP1;P2;durP2;ratioP2
9809;SDS011;4944;52.514;13.192;2023-01-26T00:01:40;15.93;;;9.67;;
9809;SDS011;4944;52.514;13.192;2023-01-26T00:04:10;15.17;;;10.53;;
9809;SDS011;4944;52.514;13.192;2023-01-26T00:06:37;15.80;;;9.37;;
9809;SDS011;4944;52.514;13.192;2023-01-26T00:09:03;12.50;;;9.07;;
9809;SDS011;4944;52.514;13.192;2023-01-26T00:11:30;12.83;;;8.73;;
9809;SDS011;4944;52.514;13.192;2023-01-26T00:13:58;12.93;;;8.83;;
9809;SDS011;4944;52.514;13.192;2023-01-26T00:16:25;10.93;;;8.27;;
9809;SDS011;4944;52.514;13.192;2023-01-26T00:18:53;13.40;;;9.33;;
9809;SDS011;4944;52.514;13.192;2023-01-26T00:21:21;18.07;;;10.33;;
9809;SDS011;4944;52.514;13.192;2023-01-26T00:23:49;18.77;;;10.10;;
9809;SDS011;4944;52.514;13.192;2023-01-26T00:26:18;16.63;;;10.20;;
9809;SDS011;4944;52.514;13.192;2023-01-26T00:28:46;15.03;;;9.37;;
9809;SDS011;4944;52.514;13.192;2023-01-26T00:31:14;16.70;;;9.70;;
9809;SDS011;4944;52.514;13.192;2023-01-26T00:33:43;17.90;;;10.50;;
9809;SDS011;4944;52.514;13.192;2023-01-26T00:36:10;19.53;;;9.97;;
9809;SDS011;4944;52.514;13.192;2023-01-26T00:38:38;17.30;;;10.27;;
9809;SDS011;4944;52.514;13.192;2023-01-26T00:41:06;18.43;;;11.00;;
9809;SDS011;4944;52.514;13.192;2023-01-26T00:43:33;18.30;;;9.93;;
9809;SDS011;4944;52.514;13.192;2023-01-26T00:46:00;15.83;;;10.10;;
9809;SDS011;4944;52.514;13.192;2023-01-26T00:48:27;18.47;;;10.27;;
9809;SDS011;4944;52.514;13.192;2023-01-26T00:50:54;22.77;;;10.63;;
9809;SDS011;4944;52.514;13.192;2023-01-26T00:53:20;19.63;;;10.43;;
9809;SDS011;4944;52.514;13.192;2023-01-26T00:55:49;17.97;;;10.67;;
9809;SDS011;4944;52.514;13.192;2023-01-26T00:58:19;19.63;;;10.53;;
9809;SDS011;4944;52.514;13.192;2023-01-26T01:00:46;19.33;;;10.63;;
9809;SDS011;4944;52.514;13.192;2023-01-26T01:03:13;22.23;;;11.93;;
9809;SDS011;4944;52.514;13.192;2023-01-26T01:05:40;20.97;;;10.80;;
9809;SDS011;4944;52.514;13.192;2023-01-26T01:08:07;18.33;;;10.67;;
9809;SDS011;4944;52.514;13.192;2023-01-26T01:10:34;20.40;;;11.33;;
9809;SDS011;4944;52.514;13.192;2023-01-26T01:13:02;21.20;;;11.67;;
9809;SDS011;4944;52.514;13.192;2023-01-26T01:15:29;16.60;;;9.60;;
9809;SDS011;4944;52.514;13.192;2023-01-26T01:17:56;20.23;;;11.40;;
9809;SDS011;4944;52.514;13.192;2023-01-26T01:20:23;23.37;;;10.63;;
9809;SDS011;4944;52.514;13.192;2023-01-26T01:22:49;18.33;;;11.07;;
9809;SDS011;4944;52.514;13.192;2023-01-26T01:25:17;19.40;;;10.90;;
9809;SDS011;4944;52.514;13.192;2023-01-26T01:27:44;21.53;;;10.73;;
9809;SDS011;4944;52.514;13.192;2023-01-26T01:30:12;17.73;;;10.20;;
9809;SDS011;4944;52.514;13.192;2023-01-26T01:32:39;21.77;;;10.87;;
9809;SDS011;4944;52.514;13.192;2023-01-26T01:35:07;19.70;;;10.93;;
9809;SDS011;4944;52.514;13.192;2023-01-26T01:37:34;18.13;;;10.37;;
9809;SDS011;4944;52.514;13.192;2023-01-26T01:40:01;19.00;;;10.80;;
9809;SDS011;4944;52.514;13.192;2023-01-26T01:42:28;18.03;;;9.83;;
9809;SDS011;4944;52.514;13.192;2023-01-26T01:48:10;17.20;;;9.43;;
9809;SDS011;4944;52.514;13.192;2023-01-26T01:50:51;19.10;;;10.50;;
9809;SDS011;4944;52.514;13.192;2023-01-26T01:53:20;21.90;;;11.03;;
9809;SDS011;4944;52.514;13.192;2023-01-26T01:55:53;21.37;;;11.77;;
9809;SDS011;4944;52.514;13.192;2023-01-26T01:58:24;19.97;;;11.10;;
9809;SDS011;4944;52.514;13.192;2023-01-26T02:00:52;17.20;;;10.43;;
9809;SDS011;4944;52.514;13.192;2023-01-26T02:03:20;18.13;;;10.63;;
9809;SDS011;4944;52.514;13.192;2023-01-26T02:05:49;19.20;;;10.43;;
9809;SDS011;4944;52.514;13.192;2023-01-26T02:08:21;18.60;;;10.67;;
9809;SDS011;4944;52.514;13.192;2023-01-26T02:10:52;22.33;;;11.40;;
9809;SDS011;4944;52.514;13.192;2023-01-26T02:13:21;20.47;;;10.73;;
9809;SDS011;4944;52.514;13.192;2023-01-26T02:15:50;21.37;;;11.07;;
9809;SDS011;4944;52.514;13.192;2023-01-26T02:18:17;20.20;;;11.03;;
9809;SDS011;4944;52.514;13.192;2023-01-26T02:20:46;19.37;;;11.13;;
9809;SDS011;4944;52.514;13.192;2023-01-26T02:23:18;19.20;;;10.60;;
9809;SDS011;4944;52.514;13.192;2023-01-26T02:26:01;18.80;;;10.30;;
9809;SDS011;4944;52.514;13.192;2023-01-26T02:28:29;21.57;;;10.73;;
9809;SDS011;4944;52.514;13.192;2023-01-26T02:30:57;17.33;;;10.50;;
9809;SDS011;4944;52.514;13.192;2023-01-26T02:33:26;17.73;;;9.80;;
9809;SDS011;4944;52.514;13.192;2023-01-26T02:35:54;19.03;;;9.83;;
9809;SDS011;4944;52.514;13.192;2023-01-26T02:38:21;16.57;;;9.80;;
9809;SDS011;4944;52.514;13.192;2023-01-26T02:40:52;15.97;;;9.67;;
9809;SDS011;4944;52.514;13.192;2023-01-26T02:43:23;15.57;;;8.93;;
9809;SDS011;4944;52.514;13.192;2023-01-26T02:45:50;15.20;;;9.83;;
9809;SDS011;4944;52.514;13.192;2023-01-26T02:48:17;17.70;;;9.87;;
9809;SDS011;4944;52.514;13.192;2023-01-26T02:51:05;15.57;;;9.50;;
9809;SDS011;4944;52.514;13.192;2023-01-26T02:53:31;16.90;;;9.47;;
9809;SDS011;4944;52.514;13.192;2023-01-26T02:55:58;15.37;;;9.10;;
9809;SDS011;4944;52.514;13.192;2023-01-26T02:58:25;13.20;;;9.30;;
9809;SDS011;4944;52.514;13.192;2023-01-26T03:00:52;13.17;;;8.43;;
9809;SDS011;4944;52.514;13.192;2023-01-26T03:03:20;12.73;;;8.00;;
9809;SDS011;4944;52.514;13.192;2023-01-26T03:05:49;16.50;;;9.20;;
9809;SDS011;4944;52.514;13.192;2023-01-26T03:08:16;16.23;;;9.30;;
9809;SDS011;4944;52.514;13.192;2023-01-26T03:10:43;15.47;;;9.20;;
9809;SDS011;4944;52.514;13.192;2023-01-26T03:13:11;13.53;;;8.70;;
9809;SDS011;4944;52.514;13.192;2023-01-26T03:15:40;13.67;;;9.23;;
9809;SDS011;4944;52.514;13.192;2023-01-26T03:18:16;14.83;;;8.80;;
9809;SDS011;4944;52.514;13.192;2023-01-26T03:21:02;12.00;;;8.20;;
9809;SDS011;4944;52.514;13.192;2023-01-26T03:23:48;11.13;;;8.27;;
9809;SDS011;4944;52.514;13.192;2023-01-26T03:26:32;12.90;;;8.33;;
9809;SDS011;4944;52.514;13.192;2023-01-26T03:29:26;12.63;;;8.63;;
9809;SDS011;4944;52.514;13.192;2023-01-26T03:31:54;12.20;;;8.27;;
9809;SDS011;4944;52.514;13.192;2023-01-26T03:34:23;13.27;;;8.57;;
9809;SDS011;4944;52.514;13.192;2023-01-26T03:36:50;13.20;;;7.80;;
9809;SDS011;4944;52.514;13.192;2023-01-26T03:39:17;10.70;;;8.33;;
9809;SDS011;4944;52.514;13.192;2023-01-26T03:42:01;12.43;;;7.80;;
9809;SDS011;4944;52.514;13.192;2023-01-26T03:44:46;14.03;;;9.13;;
9809;SDS011;4944;52.514;13.192;2023-01-26T03:47:32;13.87;;;8.40;;
9809;SDS011;4944;52.514;13.192;2023-01-26T03:50:16;14.23;;;7.77;;
9809;SDS011;4944;52.514;13.192;2023-01-26T03:53:01;13.03;;;7.60;;
9809;SDS011;4944;52.514;13.192;2023-01-26T03:55:46;11.23;;;7.43;;
9809;SDS011;4944;52.514;13.192;2023-01-26T03:58:30;11.40;;;7.20;;
9809;SDS011;4944;52.514;13.192;2023-01-26T04:00:57;11.33;;;8.17;;
9809;SDS011;4944;52.514;13.192;2023-01-26T04:03:26;11.50;;;7.90;;
9809;SDS011;4944;52.514;13.192;2023-01-26T04:06:10;9.83;;;7.30;;
9809;SDS011;4944;52.514;13.192;2023-01-26T04:08:54;13.27;;;8.03;;
9809;SDS011;4944;52.514;13.192;2023-01-26T04:11:21;10.80;;;7.33;;
9809;SDS011;4944;52.514;13.192;2023-01-26T04:13:48;12.40;;;8.13;;
9809;SDS011;4944;52.514;13.192;2023-01-26T04:16:32;12.60;;;7.83;;
9809;SDS011;4944;52.514;13.192;2023-01-26T04:19:18;11.43;;;7.33;;
9809;SDS011;4944;52.514;13.192;2023-01-26T04:22:02;14.03;;;8.03;;
9809;SDS011;4944;52.514;13.192;2023-01-26T04:24:29;12.43;;;7.43;;
9809;SDS011;4944;52.514;13.192;2023-01-26T04:26:56;12.40;;;8.20;;
9809;SDS011;4944;52.514;13.192;2023-01-26T04:29:23;13.47;;;7.83;;
9809;SDS011;4944;52.514;13.192;2023-01-26T04:31:50;13.77;;;8.73;;
9809;SDS011;4944;52.514;13.192;2023-01-26T04:34:18;9.83;;;7.10;;
9809;SDS011;4944;52.514;13.192;2023-01-26T04:36:45;11.20;;;7.20;;
9809;SDS011;4944;52.514;13.192;2023-01-26T04:39:12;11.50;;;7.73;;
9809;SDS011;4944;52.514;13.192;2023-01-26T04:41:39;12.73;;;7.10;;
9809;SDS011;4944;52.514;13.192;2023-01-26T04:44:06;11.07;;;6.57;;
9809;SDS011;4944;52.514;13.192;2023-01-26T04:46:33;10.90;;;7.07;;
9809;SDS011;4944;52.514;13.192;2023-01-26T04:49:00;11.03;;;7.47;;
9809;SDS011;4944;52.514;13.192;2023-01-26T04:51:28;13.00;;;7.97;;
9809;SDS011;4944;52.514;13.192;2023-01-26T04:53:55;10.60;;;7.10;;
9809;SDS011;4944;52.514;13.192;2023-01-26T04:56:23;7.53;;;6.20;;
9809;SDS011;4944;52.514;13.192;2023-01-26T04:58:51;10.43;;;7.33;;
9809;SDS011;4944;52.514;13.192;2023-01-26T05:01:18;11.13;;;6.90;;
9809;SDS011;4944;52.514;13.192;2023-01-26T05:03:46;8.63;;;6.87;;
9809;SDS011;4944;52.514;13.192;2023-01-26T05:06:13;8.23;;;6.17;;
9809;SDS011;4944;52.514;13.192;2023-01-26T05:08:41;8.87;;;6.57;;
9809;SDS011;4944;52.514;13.192;2023-01-26T05:11:08;11.53;;;6.83;;
9809;SDS011;4944;52.514;13.192;2023-01-26T05:13:35;9.27;;;7.10;;
9809;SDS011;4944;52.514;13.192;2023-01-26T05:16:03;12.40;;;7.07;;
9809;SDS011;4944;52.514;13.192;2023-01-26T05:18:37;12.50;;;8.40;;
9809;SDS011;4944;52.514;13.192;2023-01-26T05:21:04;14.33;;;8.77;;
9809;SDS011;4944;52.514;13.192;2023-01-26T05:23:31;14.43;;;8.37;;
9809;SDS011;4944;52.514;13.192;2023-01-26T05:26:00;15.43;;;8.60;;
9809;SDS011;4944;52.514;13.192;2023-01-26T05:28:27;10.93;;;8.23;;
9809;SDS011;4944;52.514;13.192;2023-01-26T05:30:54;13.83;;;8.00;;
9809;SDS011;4944;52.514;13.192;2023-01-26T05:33:21;15.23;;;8.00;;
9809;SDS011;4944;52.514;13.192;2023-01-26T05:35:48;17.93;;;9.17;;
9809;SDS011;4944;52.514;13.192;2023-01-26T05:38:15;13.50;;;8.53;;
9809;SDS011;4944;52.514;13.192;2023-01-26T05:40:42;15.83;;;8.40;;
9809;SDS011;4944;52.514;13.192;2023-01-26T05:43:10;15.57;;;8.70;;
9809;SDS011;4944;52.514;13.192;2023-01-26T05:45:38;14.07;;;8.33;;
9809;SDS011;4944;52.514;13.192;2023-01-26T05:48:05;16.07;;;8.50;;
9809;SDS011;4944;52.514;13.192;2023-01-26T05:50:32;14.87;;;8.67;;
9809;SDS011;4944;52.514;13.192;2023-01-26T05:52:59;15.47;;;8.83;;
9809;SDS011;4944;52.514;13.192;2023-01-26T05:55:27;16.03;;;9.03;;
9809;SDS011;4944;52.514;13.192;2023-01-26T05:57:54;11.40;;;8.10;;
9809;SDS011;4944;52.514;13.192;2023-01-26T06:00:22;12.27;;;7.70;;
9809;SDS011;4944;52.514;13.192;2023-01-26T06:02:49;10.83;;;7.37;;
9809;SDS011;4944;52.514;13.192;2023-01-26T06:05:16;12.10;;;7.63;;
9809;SDS011;4944;52.514;13.192;2023-01-26T06:07:43;13.80;;;8.03;;
9809;SDS011;4944;52.514;13.192;2023-01-26T06:10:10;12.77;;;8.23;;
9809;SDS011;4944;52.514;13.192;2023-01-26T06:12:37;14.87;;;8.47;;
9809;SDS011;4944;52.514;13.192;2023-01-26T06:15:06;16.03;;;8.57;;
9809;SDS011;4944;52.514;13.192;2023-01-26T06:17:35;14.03;;;8.30;;
9809;SDS011;4944;52.514;13.192;2023-01-26T06:20:02;14.47;;;7.63;;
9809;SDS011;4944;52.514;13.192;2023-01-26T06:22:29;13.70;;;8.17;;
9809;SDS011;4944;52.514;13.192;2023-01-26T06:24:56;9.50;;;5.93;;
9809;SDS011;4944;52.514;13.192;2023-01-26T06:27:23;10.43;;;7.00;;
9809;SDS011;4944;52.514;13.192;2023-01-26T06:29:50;10.27;;;6.80;;
9809;SDS011;4944;52.514;13.192;2023-01-26T06:32:17;12.13;;;7.50;;
9809;SDS011;4944;52.514;13.192;2023-01-26T06:34:45;12.37;;;7.60;;
9809;SDS011;4944;52.514;13.192;2023-01-26T06:37:12;11.17;;;7.00;;
9809;SDS011;4944;52.514;13.192;2023-01-26T06:39:39;12.07;;;7.73;;
9809;SDS011;4944;52.514;13.192;2023-01-26T06:42:06;10.47;;;7.10;;
9809;SDS011;4944;52.514;13.192;2023-01-26T06:44:33;10.23;;;7.13;;
9809;SDS011;4944;52.514;13.192;2023-01-26T06:47:00;9.40;;;6.97;;
9809;SDS011;4944;52.514;13.192;2023-01-26T06:49:27;10.60;;;6.47;;
9809;SDS011;4944;52.514;13.192;2023-01-26T06:51:56;9.97;;;6.43;;
9809;SDS011;4944;52.514;13.192;2023-01-26T06:54:28;10.17;;;6.50;;
9809;SDS011;4944;52.514;13.192;2023-01-26T06:56:55;9.80;;;6.73;;
9809;SDS011;4944;52.514;13.192;2023-01-26T06:59:21;10.07;;;6.27;;
9809;SDS011;4944;52.514;13.192;2023-01-26T07:01:48;9.27;;;6.73;;
9809;SDS011;4944;52.514;13.192;2023-01-26T07:04:15;11.27;;;6.50;;
9809;SDS011;4944;52.514;13.192;2023-01-26T07:06:42;9.93;;;7.00;;
9809;SDS011;4944;52.514;13.192;2023-01-26T07:09:11;11.47;;;6.90;;
9809;SDS011;4944;52.514;13.192;2023-01-26T07:11:38;9.07;;;6.47;;
9809;SDS011;4944;52.514;13.192;2023-01-26T07:14:05;8.87;;;5.93;;
9809;SDS011;4944;52.514;13.192;2023-01-26T07:16:31;10.03;;;6.87;;
9809;SDS011;4944;52.514;13.192;2023-01-26T07:18:58;6.97;;;5.77;;
9809;SDS011;4944;52.514;13.192;2023-01-26T07:21:25;8.67;;;5.87;;
9809;SDS011;4944;52.514;13.192;2023-01-26T07:23:53;6.83;;;6.10;;
9809;SDS011;4944;52.514;13.192;2023-01-26T07:26:23;6.37;;;5.10;;
9809;SDS011;4944;52.514;13.192;2023-01-26T07:28:52;6.67;;;4.87;;
9809;SDS011;4944;52.514;13.192;2023-01-26T07:31:20;4.90;;;4.40;;
9809;SDS011;4944;52.514;13.192;2023-01-26T07:33:47;8.83;;;6.50;;
9809;SDS011;4944;52.514;13.192;2023-01-26T07:36:14;8.90;;;6.77;;
9809;SDS011;4944;52.514;13.192;2023-01-26T07:38:41;8.77;;;6.87;;
9809;SDS011;4944;52.514;13.192;2023-01-26T07:41:08;11.03;;;6.77;;
9809;SDS011;4944;52.514;13.192;2023-01-26T07:43:38;8.00;;;6.03;;
9809;SDS011;4944;52.514;13.192;2023-01-26T07:46:06;6.50;;;5.80;;
9809;SDS011;4944;52.514;13.192;2023-01-26T07:48:34;8.13;;;6.30;;
9809;SDS011;4944;52.514;13.192;2023-01-26T07:51:02;8.93;;;6.43;;
9809;SDS011;4944;52.514;13.192;2023-01-26T07:53:29;8.30;;;6.83;;
9809;SDS011;4944;52.514;13.192;2023-01-26T07:56:07;8.80;;;7.10;;
9809;SDS011;4944;52.514;13.192;2023-01-26T07:58:35;7.40;;;6.60;;
9809;SDS011;4944;52.514;13.192;2023-01-26T08:01:05;6.83;;;5.67;;
9809;SDS011;4944;52.514;13.192;2023-01-26T08:03:33;6.50;;;4.97;;
9809;SDS011;4944;52.514;13.192;2023-01-26T08:06:01;6.47;;;4.60;;
9809;SDS011;4944;52.514;13.192;2023-01-26T08:08:28;5.80;;;5.13;;
9809;SDS011;4944;52.514;13.192;2023-01-26T08:10:55;5.30;;;4.77;;
9809;SDS011;4944;52.514;13.192;2023-01-26T08:13:23;5.10;;;4.60;;
9809;SDS011;4944;52.514;13.192;2023-01-26T08:15:51;5.80;;;5.20;;
9809;SDS011;4944;52.514;13.192;2023-01-26T08:18:18;5.20;;;4.40;;
9809;SDS011;4944;52.514;13.192;2023-01-26T08:20:48;5.33;;;4.63;;
9809;SDS011;4944;52.514;13.192;2023-01-26T08:23:16;5.23;;;4.73;;
9809;SDS011;4944;52.514;13.192;2023-01-26T08:25:43;6.33;;;5.27;;
9809;SDS011;4944;52.514;13.192;2023-01-26T08:28:10;5.73;;;5.10;;
9809;SDS011;4944;52.514;13.192;2023-01-26T08:30:37;5.30;;;4.80;;
9809;SDS011;4944;52.514;13.192;2023-01-26T08:33:06;6.00;;;4.80;;
9809;SDS011;4944;52.514;13.192;2023-01-26T08:35:33;5.17;;;4.67;;
9809;SDS011;4944;52.514;13.192;2023-01-26T08:38:00;7.23;;;5.20;;
9809;SDS011;4944;52.514;13.192;2023-01-26T08:40:27;5.27;;;4.77;;
9809;SDS011;4944;52.514;13.192;2023-01-26T08:42:54;5.37;;;4.87;;
9809;SDS011;4944;52.514;13.192;2023-01-26T08:45:24;5.80;;;4.90;;
9809;SDS011;4944;52.514;13.192;2023-01-26T08:47:51;4.83;;;4.37;;
9809;SDS011;4944;52.514;13.192;2023-01-26T08:50:19;5.20;;;4.67;;
9809;SDS011;4944;52.514;13.192;2023-01-26T08:52:46;4.43;;;4.03;;
9809;SDS011;4944;52.514;13.192;2023-01-26T08:55:13;5.20;;;4.70;;
9809;SDS011;4944;52.514;13.192;2023-01-26T08:57:40;6.17;;;5.03;;
9809;SDS011;4944;52.514;13.192;2023-01-26T09:00:07;5.53;;;4.97;;
9809;SDS011;4944;52.514;13.192;2023-01-26T09:02:35;5.43;;;4.83;;
9809;SDS011;4944;52.514;13.192;2023-01-26T09:05:02;6.97;;;5.60;;
9809;SDS011;4944;52.514;13.192;2023-01-26T09:07:30;6.60;;;5.43;;
9809;SDS011;4944;52.514;13.192;2023-01-26T09:09:57;6.83;;;4.93;;
9809;SDS011;4944;52.514;13.192;2023-01-26T09:12:24;6.73;;;5.13;;
9809;SDS011;4944;52.514;13.192;2023-01-26T09:14:51;8.10;;;5.77;;
9809;SDS011;4944;52.514;13.192;2023-01-26T09:17:18;5.77;;;5.17;;
9809;SDS011;4944;52.514;13.192;2023-01-26T09:19:45;5.97;;;4.80;;
9809;SDS011;4944;52.514;13.192;2023-01-26T09:22:12;6.53;;;5.70;;
9809;SDS011;4944;52.514;13.192;2023-01-26T09:24:40;7.07;;;5.77;;
9809;SDS011;4944;52.514;13.192;2023-01-26T09:27:07;6.83;;;5.73;;
9809;SDS011;4944;52.514;13.192;2023-01-26T09:29:34;7.47;;;5.80;;
9809;SDS011;4944;52.514;13.192;2023-01-26T09:32:01;6.47;;;5.20;;
9809;SDS011;4944;52.514;13.192;2023-01-26T09:34:27;7.03;;;5.93;;
9809;SDS011;4944;52.514;13.192;2023-01-26T09:36:55;6.60;;;6.00;;
9809;SDS011;4944;52.514;13.192;2023-01-26T09:39:22;7.80;;;6.43;;
9809;SDS011;4944;52.514;13.192;2023-01-26T09:41:54;7.33;;;6.27;;
9809;SDS011;4944;52.514;13.192;2023-01-26T09:44:42;8.70;;;6.20;;
9809;SDS011;4944;52.514;13.192;2023-01-26T09:47:18;7.30;;;6.20;;
9809;SDS011;4944;52.514;13.192;2023-01-26T09:49:53;8.00;;;5.70;;
9809;SDS011;4944;52.514;13.192;2023-01-26T09:52:26;8.63;;;6.13;;
9809;SDS011;4944;52.514;13.192;2023-01-26T09:54:56;8.93;;;6.40;;
9809;SDS011;4944;52.514;13.192;2023-01-26T09:57:28;8.80;;;6.20;;
9809;SDS011;4944;52.514;13.192;2023-01-26T10:00:01;9.87;;;6.90;;
9809;SDS011;4944;52.514;13.192;2023-01-26T10:02:34;7.63;;;6.43;;
9809;SDS011;4944;52.514;13.192;2023-01-26T10:05:12;7.63;;;6.87;;
9809;SDS011;4944;52.514;13.192;2023-01-26T10:07:43;8.43;;;6.43;;
9809;SDS011;4944;52.514;13.192;2023-01-26T10:10:14;8.07;;;6.77;;
9809;SDS011;4944;52.514;13.192;2023-01-26T10:12:48;8.17;;;7.23;;
9809;SDS011;4944;52.514;13.192;2023-01-26T10:15:18;9.37;;;7.00;;
9809;SDS011;4944;52.514;13.192;2023-01-26T10:17:54;8.63;;;6.87;;
9809;SDS011;4944;52.514;13.192;2023-01-26T10:20:26;8.77;;;6.33;;
9809;SDS011;4944;52.514;13.192;2023-01-26T10:22:55;6.93;;;5.90;;
9809;SDS011;4944;52.514;13.192;2023-01-26T10:25:28;8.00;;;6.27;;
9809;SDS011;4944;52.514;13.192;2023-01-26T10:27:59;8.57;;;6.80;;
9809;SDS011;4944;52.514;13.192;2023-01-26T10:30:27;7.93;;;6.27;;
9809;SDS011;4944;52.514;13.192;2023-01-26T10:32:54;7.03;;;5.97;;
9809;SDS011;4944;52.514;13.192;2023-01-26T10:35:22;9.13;;;6.87;;
9809;SDS011;4944;52.514;13.192;2023-01-26T10:37:50;8.00;;;6.70;;
9809;SDS011;4944;52.514;13.192;2023-01-26T10:40:17;7.43;;;6.63;;
9809;SDS011;4944;52.514;13.192;2023-01-26T10:42:52;9.33;;;7.03;;
9809;SDS011;4944;52.514;13.192;2023-01-26T10:45:27;6.80;;;6.07;;
9809;SDS011;4944;52.514;13.192;2023-01-26T10:48:05;6.63;;;5.93;;
9809;SDS011;4944;52.514;13.192;2023-01-26T10:50:42;7.00;;;5.97;;
9809;SDS011;4944;52.514;13.192;2023-01-26T10:53:13;7.03;;;5.97;;
9809;SDS011;4944;52.514;13.192;2023-01-26T10:55:43;6.23;;;5.43;;
9809;SDS011;4944;52.514;13.192;2023-01-26T10:58:39;8.27;;;5.80;;
9809;SDS011;4944;52.514;13.192;2023-01-26T11:01:12;6.33;;;5.70;;
9809;SDS011;4944;52.514;13.192;2023-01-26T11:03:42;6.30;;;4.87;;
9809;SDS011;4944;52.514;13.192;2023-01-26T11:06:27;6.33;;;5.40;;
9809;SDS011;4944;52.514;13.192;2023-01-26T11:09:06;7.53;;;6.10;;
9809;SDS011;4944;52.514;13.192;2023-01-26T11:11:34;6.93;;;5.70;;
9809;SDS011;4944;52.514;13.192;2023-01-26T11:14:09;7.10;;;6.00;;
9809;SDS011;4944;52.514;13.192;2023-01-26T11:16:39;6.73;;;6.03;;
9809;SDS011;4944;52.514;13.192;2023-01-26T11:19:10;7.47;;;6.13;;
9809;SDS011;4944;52.514;13.192;2023-01-26T11:21:39;7.33;;;6.63;;
9809;SDS011;4944;52.514;13.192;2023-01-26T11:24:12;7.97;;;6.47;;
9809;SDS011;4944;52.514;13.192;2023-01-26T11:29:52;7.27;;;5.70;;
9809;SDS011;4944;52.514;13.192;2023-01-26T11:32:34;7.57;;;6.43;;
9809;SDS011;4944;52.514;13.192;2023-01-26T11:35:08;7.10;;;6.17;;
9809;SDS011;4944;52.514;13.192;2023-01-26T11:37:45;6.90;;;6.20;;
9809;SDS011;4944;52.514;13.192;2023-01-26T11:40:18;9.57;;;6.53;;
9809;SDS011;4944;52.514;13.192;2023-01-26T11:42:55;6.03;;;5.43;;
9809;SDS011;4944;52.514;13.192;2023-01-26T11:45:34;6.70;;;6.03;;
9809;SDS011;4944;52.514;13.192;2023-01-26T11:48:23;6.47;;;5.70;;
9809;SDS011;4944;52.514;13.192;2023-01-26T11:50:56;6.37;;;5.70;;
9809;SDS011;4944;52.514;13.192;2023-01-26T11:56:24;5.57;;;5.03;;
9809;SDS011;4944;52.514;13.192;2023-01-26T11:59:00;6.17;;;5.27;;
9809;SDS011;4944;52.514;13.192;2023-01-26T12:01:32;5.23;;;4.80;;
9809;SDS011;4944;52.514;13.192;2023-01-26T12:04:05;5.67;;;5.17;;
9809;SDS011;4944;52.514;13.192;2023-01-26T12:06:40;4.73;;;4.30;;
9809;SDS011;4944;52.514;13.192;2023-01-26T12:09:12;4.60;;;4.20;;
9809;SDS011;4944;52.514;13.192;2023-01-26T12:11:44;4.83;;;4.10;;
9809;SDS011;4944;52.514;13.192;2023-01-26T12:14:17;4.40;;;4.00;;
9809;SDS011;4944;52.514;13.192;2023-01-26T12:16:56;4.70;;;4.30;;
9809;SDS011;4944;52.514;13.192;2023-01-26T12:19:42;4.20;;;3.80;;
9809;SDS011;4944;52.514;13.192;2023-01-26T12:22:17;4.63;;;4.20;;
9809;SDS011;4944;52.514;13.192;2023-01-26T12:24:50;5.60;;;4.57;;
9809;SDS011;4944;52.514;13.192;2023-01-26T12:27:21;5.10;;;4.67;;
9809;SDS011;4944;52.514;13.192;2023-01-26T12:29:53;5.27;;;4.53;;
9809;SDS011;4944;52.514;13.192;2023-01-26T12:32:27;5.23;;;4.73;;
9809;SDS011;4944;52.514;13.192;2023-01-26T12:34:56;5.13;;;4.70;;
9809;SDS011;4944;52.514;13.192;2023-01-26T12:37:44;5.97;;;4.83;;
9809;SDS011;4944;52.514;13.192;2023-01-26T12:40:24;5.07;;;4.57;;
9809;SDS011;4944;52.514;13.192;2023-01-26T12:43:04;6.63;;;5.10;;
9809;SDS011;4944;52.514;13.192;2023-01-26T12:45:41;5.77;;;5.13;;
9809;SDS011;4944;52.514;13.192;2023-01-26T12:48:13;5.07;;;4.50;;
9809;SDS011;4944;52.514;13.192;2023-01-26T12:50:47;5.83;;;4.70;;
9809;SDS011;4944;52.514;13.192;2023-01-26T12:53:18;5.90;;;5.40;;
9809;SDS011;4944;52.514;13.192;2023-01-26T12:55:55;5.67;;;5.17;;
9809;SDS011;4944;52.514;13.192;2023-01-26T12:58:30;6.37;;;5.77;;
9809;SDS011;4944;52.514;13.192;2023-01-26T13:01:00;6.27;;;5.47;;
9809;SDS011;4944;52.514;13.192;2023-01-26T13:03:29;6.90;;;5.77;;
9809;SDS011;4944;52.514;13.192;2023-01-26T13:06:01;7.70;;;6.03;;
9809;SDS011;4944;52.514;13.192;2023-01-26T13:08:48;9.83;;;6.77;;
9809;SDS011;4944;52.514;13.192;2023-01-26T13:14:23;7.43;;;6.57;;
9809;SDS011;4944;52.514;13.192;2023-01-26T13:16:58;8.93;;;6.37;;
9809;SDS011;4944;52.514;13.192;2023-01-26T13:20:13;9.50;;;6.63;;
9809;SDS011;4944;52.514;13.192;2023-01-26T13:22:48;11.13;;;7.47;;
9809;SDS011;4944;52.514;13.192;2023-01-26T13:25:17;9.20;;;7.23;;
9809;SDS011;4944;52.514;13.192;2023-01-26T13:27:53;11.50;;;8.50;;
9809;SDS011;4944;52.514;13.192;2023-01-26T13:30:31;10.47;;;7.87;;
9809;SDS011;4944;52.514;13.192;2023-01-26T13:33:10;10.43;;;7.87;;
9809;SDS011;4944;52.514;13.192;2023-01-26T13:35:42;11.40;;;7.73;;
9809;SDS011;4944;52.514;13.192;2023-01-26T13:38:15;11.73;;;8.60;;
9809;SDS011;4944;52.514;13.192;2023-01-26T13:40:46;11.80;;;8.57;;
9809;SDS011;4944;52.514;13.192;2023-01-26T13:43:16;11.70;;;8.80;;
9809;SDS011;4944;52.514;13.192;2023-01-26T13:45:54;10.90;;;8.10;;
9809;SDS011;4944;52.514;13.192;2023-01-26T13:48:30;10.60;;;8.53;;
9809;SDS011;4944;52.514;13.192;2023-01-26T13:51:06;11.20;;;8.40;;
9809;SDS011;4944;52.514;13.192;2023-01-26T13:53:38;11.00;;;8.63;;
9809;SDS011;4944;52.514;13.192;2023-01-26T13:56:16;12.30;;;8.97;;
9809;SDS011;4944;52.514;13.192;2023-01-26T13:58:47;11.87;;;8.33;;
9809;SDS011;4944;52.514;13.192;2023-01-26T14:01:14;10.10;;;7.80;;
9809;SDS011;4944;52.514;13.192;2023-01-26T14:03:42;11.10;;;8.00;;
9809;SDS011;4944;52.514;13.192;2023-01-26T14:06:09;10.60;;;8.40;;
9809;SDS011;4944;52.514;13.192;2023-01-26T14:08:41;9.33;;;8.30;;
9809;SDS011;4944;52.514;13.192;2023-01-26T14:11:15;9.77;;;8.13;;
9809;SDS011;4944;52.514;13.192;2023-01-26T14:13:45;11.73;;;8.80;;
9809;SDS011;4944;52.514;13.192;2023-01-26T14:16:20;10.93;;;7.93;;
9809;SDS011;4944;52.514;13.192;2023-01-26T14:18:50;11.77;;;8.93;;
9809;SDS011;4944;52.514;13.192;2023-01-26T14:21:17;12.87;;;9.07;;
9809;SDS011;4944;52.514;13.192;2023-01-26T14:23:49;11.47;;;8.20;;
9809;SDS011;4944;52.514;13.192;2023-01-26T14:26:20;9.47;;;7.40;;
9809;SDS011;4944;52.514;13.192;2023-01-26T14:28:54;8.13;;;7.17;;
9809;SDS011;4944;52.514;13.192;2023-01-26T14:31:22;9.43;;;7.33;;
9809;SDS011;4944;52.514;13.192;2023-01-26T14:33:51;8.70;;;6.97;;
9809;SDS011;4944;52.514;13.192;2023-01-26T14:36:22;9.03;;;7.20;;
9809;SDS011;4944;52.514;13.192;2023-01-26T14:38:52;9.93;;;6.53;;
9809;SDS011;4944;52.514;13.192;2023-01-26T14:41:21;7.77;;;6.97;;
9809;SDS011;4944;52.514;13.192;2023-01-26T14:43:50;8.83;;;7.07;;
9809;SDS011;4944;52.514;13.192;2023-01-26T14:46:20;8.33;;;7.00;;
9809;SDS011;4944;52.514;13.192;2023-01-26T14:48:51;9.47;;;7.50;;
9809;SDS011;4944;52.514;13.192;2023-01-26T14:51:23;8.50;;;7.20;;
9809;SDS011;4944;52.514;13.192;2023-01-26T14:53:54;8.87;;;7.20;;
9809;SDS011;4944;52.514;13.192;2023-01-26T14:56:26;8.57;;;7.13;;
9809;SDS011;4944;52.514;13.192;2023-01-26T14:59:00;8.73;;;7.43;;
9809;SDS011;4944;52.514;13.192;2023-01-26T15:01:28;8.07;;;7.20;;
9809;SDS011;4944;52.514;13.192;2023-01-26T15:03:57;9.20;;;7.37;;
9809;SDS011;4944;52.514;13.192;2023-01-26T15:06:26;8.50;;;7.30;;
9809;SDS011;4944;52.514;13.192;2023-01-26T15:08:57;8.17;;;6.53;;
9809;SDS011;4944;52.514;13.192;2023-01-26T15:11:26;8.90;;;6.30;;
9809;SDS011;4944;52.514;13.192;2023-01-26T15:14:25;9.73;;;7.20;;
9809;SDS011;4944;52.514;13.192;2023-01-26T15:16:57;8.93;;;7.40;;
9809;SDS011;4944;52.514;13.192;2023-01-26T15:19:24;10.70;;;8.07;;
9809;SDS011;4944;52.514;13.192;2023-01-26T15:21:55;10.70;;;8.27;;
9809;SDS011;4944;52.514;13.192;2023-01-26T15:24:24;11.30;;;8.27;;
9809;SDS011;4944;52.514;13.192;2023-01-26T15:26:51;11.13;;;8.80;;